Historyczne dane pomiarowe

Dodano dane terminowe – wersja testowa.

Dane z okresu 1951-2019

Wersja bazy: 1.34 [2019-03-16, lista zmian], aktualizacja planowana na 2019-04-15

Dane meteo z obszaru Polski uzyskane na podstawie danych udostępnionych przez Instytut Meteorologii i Gospodarki Wodnej – Państwowy Instytut Badawczy.

 

Wybierz Datę:    

       

TemperaturaWilgotnośćZachmurzenieWiatrCiśnienieWidzialnośćZjawiska
 Data    tng td wb rh cc ccl cl cm ch dir g1 g2 mslp ppp      
1999-08-06 00:00:00 8.6--- 6.4 7.586wxwxwxwx6wx--- 802.7 0.2---wx
1999-08-06 01:00:00 8.4--- 6.5 7.487wxwxwxwx6wx--- 802.5----wx
1999-08-06 02:00:00 8.4--- 7.1 7.791wxwxwxwx6wx--- 802.2----wx
1999-08-06 03:00:00 8.5--- 7.7 8.194wxwxwxwx6wx--- 801.9----wxw1
1999-08-06 04:00:00 8.5--- 8.1 8.397wxwxwx6wx--- 801.8----wxw1
1999-08-06 05:00:00 9.5--- 8.5 8.993wxwxwxwxwx8wx--- 801.8----wxw1
1999-08-06 06:00:00 9.9--- 8.5 9.191wxwxwx6wx--- 801.9 2.0---wxw1
1999-08-06 07:00:00 9.8--- 9.0 9.495wxwxwx6wx--- 802.1----wx
1999-08-06 08:00:00 10.5--- 9.3 9.892wxwxwx7wx--- 802.2----wx
1999-08-06 09:00:00 11.2--- 9.4 10.289wxwxwxwx6wx--- 802.4----wxw1
1999-08-06 10:00:00 11.7--- 9.5 10.586wxwxwxwx5wx--- 802.5----wx
1999-08-06 11:00:00 13.4--- 8.4 10.672wxwxwxwxwx3wx--- 802.3----wx
1999-08-06 12:00:00 13.8--- 7.7 10.567wxwxwxwx4wx--- 802.1 0.0---wxw1
1999-08-06 13:00:00 15.6--- 8.2 11.562wxwxwxwx5wx--- 801.7----wx
1999-08-06 14:00:00 14.3--- 8.1 10.966wxwxwxwx6wx--- 801.6----wx
1999-08-06 15:00:00 14.5--- 8.4 11.067wxwxwxwx6wx--- 801.5----wx
1999-08-06 16:00:00 14.1--- 8.4 10.968wxwxwxwx3wx--- 801.5----wx
1999-08-06 17:00:00 11.5--- 10.9 11.296wxwx6wx--- 801.5----wxw1
1999-08-06 18:00:00 11.3--- 8.6 9.884wxwxwxwx5wx--- 801.2 0.0---wxw1
1999-08-06 19:00:00 10.4--- 9.5 10.095wxwxwx5wx--- 801.3----wx
1999-08-06 20:00:00 9.8--- 9.2 9.596wxwxwx3wx--- 801.3----wx
1999-08-06 21:00:00 10.0--- 8.0 8.987wxwx4wx--- 801.5----wx
1999-08-06 22:00:00 10.0--- 6.5 8.280wxwx6wx--- 801.4----wx
1999-08-06 23:00:00 9.8--- 7.1 8.384wxwx4wx--- 801.1----wx

 

Źródłem pochodzenia danych jest Instytut Meteorologii i Gospodarki Wodnej – Państwowy Instytut Badawczy. Dane Instytutu Meteorologii i Gospodarki Wodnej – Państwowego Instytutu Badawczego zostały przetworzone.

Dane źródłowe można odnaleźć na stronie https://dane.imgw.pl